createdAt,value
2018-02-10T00:00:25.997Z,0
2018-02-10T00:01:35.983Z,0
2018-02-10T00:02:45.963Z,0
2018-02-10T00:03:55.696Z,0
2018-02-10T00:05:05.144Z,0
2018-02-10T00:06:14.860Z,0
2018-02-10T00:07:24.577Z,0
2018-02-10T00:08:34.557Z,0
2018-02-10T00:09:44.540Z,0
2018-02-10T00:10:54.518Z,0
2018-02-10T00:12:04.549Z,0
2018-02-10T00:13:14.265Z,0
2018-02-10T00:14:24.244Z,0
2018-02-10T00:15:33.696Z,0
2018-02-10T00:16:43.421Z,0
2018-02-10T00:17:52.906Z,0
2018-02-10T00:19:02.364Z,0
2018-02-10T00:20:12.074Z,0
2018-02-10T00:21:22.055Z,0
2018-02-10T00:22:32.032Z,0
2018-02-10T00:23:42.016Z,0
2018-02-10T00:24:51.730Z,0
2018-02-10T00:26:01.778Z,0
2018-02-10T00:27:11.760Z,0
2018-02-10T00:28:21.476Z,0
2018-02-10T00:29:31.195Z,0
2018-02-10T00:30:41.277Z,0
2018-02-10T00:31:51.067Z,0
2018-02-10T00:33:00.778Z,0
2018-02-10T00:34:10.755Z,0
2018-02-10T00:35:20.735Z,0
2018-02-10T00:36:30.451Z,0
2018-02-10T00:37:40.439Z,0
2018-02-10T00:38:50.417Z,0
2018-02-10T00:40:00.392Z,0
2018-02-10T00:41:10.373Z,0
2018-02-10T00:42:20.360Z,0
2018-02-10T00:43:30.336Z,0
2018-02-10T00:44:40.316Z,0
2018-02-10T00:45:50.293Z,0
2018-02-10T00:47:00.285Z,0
2018-02-10T00:48:10.259Z,0
2018-02-10T00:49:20.253Z,0
2018-02-10T00:50:29.969Z,0
2018-02-10T00:51:39.954Z,0
2018-02-10T00:52:49.945Z,0
2018-02-10T00:53:59.444Z,0
2018-02-10T00:55:09.159Z,0
2018-02-10T00:56:19.202Z,0
2018-02-10T00:57:28.929Z,0
2018-02-10T00:58:38.649Z,0
2018-02-10T00:59:48.633Z,0
2018-02-10T01:00:58.610Z,0
2018-02-10T01:02:08.582Z,0
2018-02-10T01:03:18.305Z,0
2018-02-10T01:04:28.287Z,0
2018-02-10T01:05:38.275Z,0
2018-02-10T01:06:47.988Z,0
2018-02-10T01:07:57.433Z,0
2018-02-10T01:09:07.412Z,0
2018-02-10T01:10:17.134Z,0
2018-02-10T01:11:26.586Z,0
2018-02-10T01:12:36.564Z,0
2018-02-10T01:13:46.545Z,0
2018-02-10T01:14:56.564Z,0
2018-02-10T01:16:06.542Z,0
2018-02-10T01:17:16.260Z,0
2018-02-10T01:18:25.706Z,0
2018-02-10T01:19:35.728Z,0
2018-02-10T01:20:45.708Z,0
2018-02-10T01:21:55.695Z,0
2018-02-10T01:23:05.151Z,0
2018-02-10T01:24:14.600Z,0
2018-02-10T01:25:24.587Z,0
2018-02-10T01:26:34.301Z,0
2018-02-10T01:27:44.021Z,0
2018-02-10T01:28:54.000Z,0
2018-02-10T01:30:03.712Z,0
2018-02-10T01:31:13.430Z,0
2018-02-10T01:32:23.422Z,0
2018-02-10T01:33:32.871Z,0
2018-02-10T01:34:42.896Z,0
2018-02-10T01:35:52.871Z,0
2018-02-10T01:37:02.862Z,0
2018-02-10T01:38:12.579Z,0
2018-02-10T01:39:22.559Z,0
2018-02-10T01:40:32.541Z,0
2018-02-10T01:41:42.252Z,0
2018-02-10T01:42:51.962Z,0
2018-02-10T01:44:01.941Z,0
2018-02-10T01:45:11.924Z,0
2018-02-10T01:46:21.914Z,0
2018-02-10T01:47:31.889Z,0
2018-02-10T01:48:41.339Z,0
2018-02-10T01:49:51.319Z,0
2018-02-10T01:51:01.035Z,0
2018-02-10T01:52:10.753Z,0
2018-02-10T01:53:20.736Z,0
2018-02-10T01:54:30.713Z,0
2018-02-10T01:55:40.428Z,0
2018-02-10T01:56:50.146Z,0
2018-02-10T01:58:00.174Z,0
2018-02-10T01:59:09.627Z,0
2018-02-10T02:00:19.608Z,0
2018-02-10T02:01:29.338Z,0
2018-02-10T02:02:39.351Z,0
2018-02-10T02:03:48.796Z,0
2018-02-10T02:04:58.512Z,0
2018-02-10T02:06:08.493Z,0
2018-02-10T02:07:18.468Z,0
2018-02-10T02:08:28.187Z,0
2018-02-10T02:09:38.166Z,0
2018-02-10T02:10:48.157Z,0
2018-02-10T02:11:58.134Z,0
2018-02-10T02:13:07.920Z,0
2018-02-10T02:14:17.636Z,0
2018-02-10T02:15:27.623Z,0
2018-02-10T02:16:37.340Z,0
2018-02-10T02:17:47.349Z,0
2018-02-10T02:18:57.328Z,0
2018-02-10T02:20:07.317Z,0
2018-02-10T02:21:17.400Z,0
2018-02-10T02:22:27.118Z,0
2018-02-10T02:23:37.102Z,0
2018-02-10T02:24:47.079Z,0
2018-02-10T02:25:56.796Z,0
2018-02-10T02:27:06.778Z,0
2018-02-10T02:28:16.753Z,0
2018-02-10T02:29:26.477Z,0
2018-02-10T02:30:36.456Z,0
2018-02-10T02:31:45.914Z,0
2018-02-10T02:32:55.632Z,0
2018-02-10T02:34:05.615Z,0
2018-02-10T02:35:15.071Z,0
2018-02-10T02:36:24.796Z,0
2018-02-10T02:37:34.795Z,0
2018-02-10T02:38:44.785Z,0
2018-02-10T02:39:54.765Z,0
2018-02-10T02:41:04.745Z,0
2018-02-10T02:42:14.467Z,0
2018-02-10T02:43:24.449Z,0
2018-02-10T02:44:34.012Z,0
2018-02-10T02:45:43.731Z,0
2018-02-10T02:46:53.715Z,0
2018-02-10T02:48:03.434Z,0
2018-02-10T02:49:13.416Z,0
2018-02-10T02:50:23.391Z,0
2018-02-10T02:51:33.373Z,0
2018-02-10T02:52:43.092Z,0
2018-02-10T02:53:52.812Z,0
2018-02-10T02:55:02.804Z,0
2018-02-10T02:56:12.261Z,0
2018-02-10T02:57:22.249Z,0
2018-02-10T02:58:32.237Z,0
2018-02-10T02:59:41.689Z,0
2018-02-10T03:00:51.673Z,0
2018-02-10T03:02:01.710Z,0
2018-02-10T03:03:11.704Z,0
2018-02-10T03:04:21.419Z,0
2018-02-10T03:05:31.135Z,0
2018-02-10T03:06:40.847Z,0
2018-02-10T03:07:50.341Z,0
2018-02-10T03:09:00.369Z,0
2018-02-10T03:10:09.819Z,0
2018-02-10T03:11:19.539Z,0
2018-02-10T03:12:29.520Z,0
2018-02-10T03:13:39.241Z,0
2018-02-10T03:14:48.958Z,0
2018-02-10T03:15:58.670Z,0
2018-02-10T03:17:08.389Z,0
2018-02-10T03:18:18.374Z,0
2018-02-10T03:19:28.454Z,0
2018-02-10T03:20:38.441Z,0
2018-02-10T03:21:48.160Z,0
2018-02-10T03:22:58.136Z,0
2018-02-10T03:24:07.852Z,0
2018-02-10T03:25:17.302Z,0
2018-02-10T03:26:27.022Z,0
2018-02-10T03:27:36.744Z,0
2018-02-10T03:28:46.758Z,0
2018-02-10T03:29:56.476Z,0
2018-02-10T03:31:06.472Z,0
2018-02-10T03:32:16.190Z,0
2018-02-10T03:33:26.175Z,0
2018-02-10T03:34:36.155Z,0
2018-02-10T03:35:46.237Z,0
2018-02-10T03:36:55.788Z,0
2018-02-10T03:38:05.537Z,0
2018-02-10T03:39:15.306Z,0
2018-02-10T03:40:25.316Z,0
2018-02-10T03:41:35.039Z,0
2018-02-10T03:42:44.223Z,0
2018-02-10T03:43:53.935Z,0
2018-02-10T03:45:03.913Z,0
2018-02-10T03:46:13.900Z,0
2018-02-10T03:47:23.614Z,0
2018-02-10T03:48:33.060Z,0
2018-02-10T03:49:43.041Z,0
2018-02-10T03:50:52.232Z,0
2018-02-10T03:52:01.680Z,0
2018-02-10T03:53:11.654Z,0
2018-02-10T03:54:20.888Z,0
2018-02-10T03:55:30.626Z,0
2018-02-10T03:56:40.605Z,0
2018-02-10T03:57:50.596Z,0
2018-02-10T03:59:00.587Z,0
2018-02-10T04:04:20.888Z,0
2018-02-10T04:05:30.863Z,0
2018-02-10T04:06:40.844Z,0
2018-02-10T04:07:50.828Z,0
2018-02-10T04:09:00.853Z,0
2018-02-10T04:10:10.567Z,0
2018-02-10T04:11:20.334Z,0
2018-02-10T04:12:30.314Z,0
2018-02-10T04:13:40.293Z,0
2018-02-10T04:14:50.266Z,0
2018-02-10T04:15:59.978Z,0
2018-02-10T04:17:09.962Z,0
2018-02-10T04:18:19.942Z,0
2018-02-10T04:19:29.658Z,0
2018-02-10T04:20:39.639Z,0
2018-02-10T04:21:49.354Z,0
2018-02-10T04:22:58.803Z,0
2018-02-10T04:24:08.782Z,0
2018-02-10T04:25:18.761Z,0
2018-02-10T04:26:28.477Z,0
2018-02-10T04:27:38.459Z,0
2018-02-10T04:28:48.438Z,0
2018-02-10T04:29:58.153Z,0
2018-02-10T04:31:08.130Z,0
2018-02-10T04:32:18.123Z,0
2018-02-10T04:33:27.587Z,0
2018-02-10T04:34:37.302Z,0
2018-02-10T04:35:47.282Z,0
2018-02-10T04:36:56.996Z,0
2018-02-10T04:38:06.707Z,0
2018-02-10T04:39:16.156Z,0
2018-02-10T04:40:26.135Z,0
2018-02-10T04:41:35.583Z,0
2018-02-10T04:42:45.566Z,0
2018-02-10T04:43:54.751Z,0
2018-02-10T04:45:04.465Z,0
2018-02-10T04:46:14.450Z,0
2018-02-10T04:47:24.169Z,0
2018-02-10T04:48:34.150Z,0
2018-02-10T04:49:44.131Z,0
2018-02-10T04:50:53.907Z,0
2018-02-10T04:52:03.624Z,0
2018-02-10T04:53:13.344Z,0
2018-02-10T04:54:23.331Z,0
2018-02-10T04:55:33.044Z,0
2018-02-10T04:56:42.499Z,0
2018-02-10T04:57:52.265Z,0
2018-02-10T04:59:01.984Z,0
2018-02-10T05:00:11.962Z,0
2018-02-10T05:01:21.741Z,0
2018-02-10T05:02:31.732Z,0
2018-02-10T05:03:41.185Z,0
2018-02-10T05:04:50.899Z,0
2018-02-10T05:06:00.881Z,0
2018-02-10T05:07:10.334Z,0
2018-02-10T05:08:20.320Z,0
2018-02-10T05:09:30.038Z,0
2018-02-10T05:10:39.752Z,0
2018-02-10T05:11:49.468Z,0
2018-02-10T05:12:59.454Z,0
2018-02-10T05:14:09.169Z,0
2018-02-10T05:15:19.151Z,0
2018-02-10T05:16:28.879Z,0
2018-02-10T05:17:38.856Z,0
2018-02-10T05:18:48.843Z,0
2018-02-10T05:19:58.567Z,0
2018-02-10T05:21:08.603Z,0
2018-02-10T05:22:18.317Z,0
2018-02-10T05:23:28.292Z,0
2018-02-10T05:24:38.269Z,0
2018-02-10T05:25:47.982Z,0
2018-02-10T05:26:57.957Z,0
2018-02-10T05:28:07.411Z,0
2018-02-10T05:29:17.391Z,0
2018-02-10T05:30:27.371Z,0
2018-02-10T05:31:37.348Z,0
2018-02-10T05:32:47.339Z,0
2018-02-10T05:33:57.323Z,0
2018-02-10T05:35:07.311Z,0
2018-02-10T05:36:17.285Z,0
2018-02-10T05:37:27.013Z,0
2018-02-10T05:38:37.093Z,0
2018-02-10T05:39:47.076Z,0
2018-02-10T05:40:56.793Z,0
2018-02-10T05:42:06.776Z,0
2018-02-10T05:43:16.756Z,0
2018-02-10T05:44:26.578Z,0
2018-02-10T05:45:36.567Z,0
2018-02-10T05:46:46.283Z,0
2018-02-10T05:47:55.728Z,0
2018-02-10T05:49:05.707Z,0
2018-02-10T05:50:15.157Z,0
2018-02-10T05:51:24.867Z,0
2018-02-10T05:52:34.844Z,0
2018-02-10T05:53:44.818Z,0
2018-02-10T05:54:54.532Z,0
2018-02-10T05:56:04.523Z,0
2018-02-10T05:57:14.503Z,0
2018-02-10T05:58:24.475Z,0
2018-02-10T05:59:34.459Z,0
2018-02-10T06:00:44.232Z,0
2018-02-10T06:01:54.271Z,0
2018-02-10T06:03:04.248Z,0
2018-02-10T06:04:13.986Z,0
2018-02-10T06:05:23.969Z,0
2018-02-10T06:06:33.735Z,0
2018-02-10T06:07:43.815Z,0
2018-02-10T06:08:53.794Z,0
2018-02-10T06:10:03.779Z,0
2018-02-10T06:11:13.759Z,0
2018-02-10T06:12:23.475Z,0
2018-02-10T06:13:33.192Z,0
2018-02-10T06:14:42.906Z,0
2018-02-10T06:15:52.616Z,0
2018-02-10T06:17:02.332Z,0
2018-02-10T06:18:12.060Z,0
2018-02-10T06:19:22.040Z,0
2018-02-10T06:20:32.021Z,0
2018-02-10T06:21:41.998Z,0
2018-02-10T06:22:51.714Z,0
2018-02-10T06:24:01.430Z,0
2018-02-10T06:25:11.414Z,0
2018-02-10T06:26:21.399Z,0
2018-02-10T06:27:31.374Z,0
2018-02-10T06:28:41.087Z,0
2018-02-10T06:29:50.803Z,0
2018-02-10T06:31:00.526Z,0
2018-02-10T06:32:09.980Z,0
2018-02-10T06:33:19.702Z,0
2018-02-10T06:34:29.427Z,0
2018-02-10T06:35:39.412Z,0
2018-02-10T06:36:49.389Z,0
2018-02-10T06:37:59.369Z,0
2018-02-10T06:39:09.345Z,0
2018-02-10T06:40:19.321Z,0
2018-02-10T06:41:29.034Z,0
2018-02-10T06:42:38.492Z,0
2018-02-10T06:43:48.475Z,0
2018-02-10T06:44:58.484Z,0
2018-02-10T06:46:08.260Z,0
2018-02-10T06:47:18.251Z,0
2018-02-10T06:48:28.232Z,0
2018-02-10T06:49:38.208Z,0
2018-02-10T06:50:47.656Z,0
2018-02-10T06:51:57.637Z,0
2018-02-10T06:53:07.090Z,0
2018-02-10T06:54:17.065Z,0
2018-02-10T06:55:26.785Z,0
2018-02-10T06:56:36.759Z,0
2018-02-10T06:57:46.734Z,0
2018-02-10T06:58:56.714Z,0
2018-02-10T07:00:06.480Z,0
2018-02-10T07:01:16.460Z,0
2018-02-10T07:02:26.444Z,0
2018-02-10T07:03:36.427Z,0
2018-02-10T07:04:46.139Z,5
2018-02-10T07:05:55.852Z,5
2018-02-10T07:07:05.574Z,5
2018-02-10T07:08:14.767Z,5
2018-02-10T07:09:24.217Z,5
2018-02-10T07:10:33.940Z,5
2018-02-10T07:11:43.918Z,5
2018-02-10T07:12:53.706Z,5
2018-02-10T07:14:03.681Z,5
2018-02-10T07:15:13.396Z,5
2018-02-10T07:16:22.843Z,10
2018-02-10T07:17:32.602Z,10
2018-02-10T07:18:42.580Z,10
2018-02-10T07:19:52.556Z,10
2018-02-10T07:21:02.543Z,10
2018-02-10T07:22:11.990Z,10
2018-02-10T07:23:22.023Z,10
2018-02-10T07:24:31.748Z,15
2018-02-10T07:25:41.464Z,15
2018-02-10T07:26:51.444Z,15
2018-02-10T07:28:01.164Z,15
2018-02-10T07:29:10.352Z,15
2018-02-10T07:30:20.068Z,20
2018-02-10T07:31:29.791Z,20
2018-02-10T07:32:39.555Z,20
2018-02-10T07:33:49.553Z,20
2018-02-10T07:34:59.526Z,25
2018-02-10T07:36:08.710Z,25
2018-02-10T07:37:18.161Z,25
2018-02-10T07:38:27.872Z,30
2018-02-10T07:39:37.324Z,30
2018-02-10T07:40:47.303Z,30
2018-02-10T07:41:57.285Z,35
2018-02-10T07:43:07.264Z,35
2018-02-10T07:44:17.240Z,35
2018-02-10T07:45:26.688Z,40
2018-02-10T07:46:36.137Z,40
2018-02-10T07:47:45.854Z,40
2018-02-10T07:48:55.566Z,45
2018-02-10T07:50:05.015Z,45
2018-02-10T07:51:14.993Z,45
2018-02-10T07:52:24.440Z,50
2018-02-10T07:53:33.889Z,50
2018-02-10T07:54:43.603Z,55
2018-02-10T07:55:53.315Z,55
2018-02-10T07:57:03.360Z,55
2018-02-10T07:58:13.341Z,60
2018-02-10T07:59:23.143Z,60
2018-02-10T08:00:32.858Z,60
2018-02-10T08:01:42.307Z,60
2018-02-10T08:02:52.286Z,60
2018-02-10T08:04:02.310Z,65
2018-02-10T08:05:12.287Z,65
2018-02-10T08:06:22.275Z,65
2018-02-10T08:07:32.251Z,70
2018-02-10T08:08:41.964Z,70
2018-02-10T08:09:52.007Z,70
2018-02-10T08:11:01.455Z,70
2018-02-10T08:12:10.640Z,70
2018-02-10T08:13:20.618Z,75
2018-02-10T08:14:30.596Z,80
2018-02-10T08:15:40.051Z,85
2018-02-10T08:16:49.765Z,85
2018-02-10T08:17:59.476Z,85
2018-02-10T08:19:09.187Z,90
2018-02-10T08:20:19.162Z,95
2018-02-10T08:21:29.207Z,95
2018-02-10T08:22:38.926Z,100
2018-02-10T08:23:48.910Z,100
2018-02-10T08:24:58.911Z,105
2018-02-10T08:26:08.890Z,105
2018-02-10T08:27:18.601Z,105
2018-02-10T08:28:28.312Z,100
2018-02-10T08:29:38.287Z,105
2018-02-10T08:30:48.000Z,100
2018-02-10T08:31:57.977Z,100
2018-02-10T08:33:07.539Z,105
2018-02-10T08:34:17.514Z,105
2018-02-10T08:35:26.967Z,110
2018-02-10T08:36:36.679Z,110
2018-02-10T08:37:46.403Z,115
2018-02-10T08:38:56.114Z,120
2018-02-10T08:40:06.093Z,125
2018-02-10T08:41:15.810Z,130
2018-02-10T08:42:25.521Z,130
2018-02-10T08:43:35.235Z,135
2018-02-10T08:44:45.212Z,135
2018-02-10T08:45:55.189Z,135
2018-02-10T08:47:04.676Z,135
2018-02-10T08:48:14.664Z,135
2018-02-10T08:49:24.650Z,135
2018-02-10T08:50:34.093Z,140
2018-02-10T08:51:44.073Z,145
2018-02-10T08:52:54.055Z,145
2018-02-10T08:54:03.766Z,150
2018-02-10T08:55:13.739Z,155
2018-02-10T08:56:23.551Z,160
2018-02-10T08:57:33.528Z,165
2018-02-10T08:58:43.506Z,165
2018-02-10T08:59:52.951Z,165
2018-02-10T09:01:02.659Z,165
2018-02-10T09:02:12.692Z,160
2018-02-10T09:03:22.669Z,160
2018-02-10T09:04:31.852Z,160
2018-02-10T09:05:41.565Z,160
2018-02-10T09:06:51.547Z,170
2018-02-10T09:08:01.262Z,165
2018-02-10T09:09:11.241Z,170
2018-02-10T09:10:20.954Z,175
2018-02-10T09:11:30.686Z,180
2018-02-10T09:12:40.399Z,185
2018-02-10T09:13:50.112Z,190
2018-02-10T09:14:59.835Z,195
2018-02-10T09:16:09.812Z,200
2018-02-10T09:17:19.790Z,200
2018-02-10T09:18:29.502Z,205
2018-02-10T09:19:39.535Z,215
2018-02-10T09:20:49.515Z,215
2018-02-10T09:21:59.503Z,220
2018-02-10T09:23:09.482Z,230
2018-02-10T09:24:19.200Z,230
2018-02-10T09:25:28.697Z,230
2018-02-10T09:26:38.674Z,230
2018-02-10T09:27:48.385Z,225
2018-02-10T09:28:58.100Z,215
2018-02-10T09:30:07.821Z,210
2018-02-10T09:31:17.270Z,200
2018-02-10T09:32:26.453Z,195
2018-02-10T09:33:36.173Z,190
2018-02-10T09:34:45.880Z,190
2018-02-10T09:35:55.868Z,190
2018-02-10T09:37:05.325Z,195
2018-02-10T09:38:15.044Z,195
2018-02-10T09:39:24.224Z,200
2018-02-10T09:40:33.723Z,200
2018-02-10T09:41:43.436Z,200
2018-02-10T09:42:53.156Z,200
2018-02-10T09:44:03.146Z,205
2018-02-10T09:45:12.382Z,205
2018-02-10T09:46:22.365Z,205
2018-02-10T09:47:31.818Z,200
2018-02-10T09:48:41.800Z,200
2018-02-10T09:49:51.784Z,200
2018-02-10T09:51:01.507Z,195
2018-02-10T09:52:11.266Z,195
2018-02-10T09:53:21.242Z,195
2018-02-10T09:54:30.433Z,195
2018-02-10T09:55:40.415Z,200
2018-02-10T09:56:50.402Z,200
2018-02-10T09:58:00.160Z,200
2018-02-10T09:59:10.199Z,200
2018-02-10T10:00:20.174Z,205
2018-02-10T10:01:29.893Z,200
2018-02-10T10:02:39.928Z,205
2018-02-10T10:03:49.915Z,210
2018-02-10T10:04:59.891Z,215
2018-02-10T10:06:09.661Z,220
2018-02-10T10:07:19.380Z,230
2018-02-10T10:08:29.098Z,240
2018-02-10T10:09:39.081Z,245
2018-02-10T10:10:49.060Z,255
2018-02-10T10:11:59.041Z,255
2018-02-10T10:13:08.753Z,255
2018-02-10T10:14:18.742Z,255
2018-02-10T10:15:28.726Z,260
2018-02-10T10:16:38.449Z,260
2018-02-10T10:17:47.900Z,250
2018-02-10T10:18:57.353Z,250
2018-02-10T10:20:07.085Z,245
2018-02-10T10:21:16.641Z,235
2018-02-10T10:22:26.093Z,235
2018-02-10T10:23:36.083Z,230
2018-02-10T10:24:45.807Z,230
2018-02-10T10:25:55.526Z,225
2018-02-10T10:27:05.509Z,225
2018-02-10T10:28:15.009Z,225
2018-02-10T10:29:24.726Z,225
2018-02-10T10:30:34.445Z,225
2018-02-10T10:31:44.425Z,230
2018-02-10T10:32:54.404Z,235
2018-02-10T10:34:04.378Z,240
2018-02-10T10:35:13.955Z,240
2018-02-10T10:36:23.945Z,245
2018-02-10T10:37:33.391Z,250
2018-02-10T10:38:43.107Z,255
2018-02-10T10:39:53.093Z,250
2018-02-10T10:41:02.807Z,250
2018-02-10T10:42:12.260Z,260
2018-02-10T10:43:21.985Z,265
2018-02-10T10:44:31.709Z,270
2018-02-10T10:45:41.428Z,275
2018-02-10T10:46:50.886Z,285
2018-02-10T10:48:00.602Z,300
2018-02-10T10:49:10.322Z,295
2018-02-10T10:50:20.316Z,290
2018-02-10T10:51:30.297Z,290
2018-02-10T10:52:40.007Z,290
2018-02-10T10:53:49.724Z,295
2018-02-10T10:54:59.705Z,290
2018-02-10T10:56:09.157Z,290
2018-02-10T10:57:19.140Z,285
2018-02-10T10:58:29.129Z,280
2018-02-10T10:59:38.849Z,285
2018-02-10T11:00:48.826Z,280
2018-02-10T11:01:58.607Z,280
2018-02-10T11:03:08.591Z,280
2018-02-10T11:04:18.356Z,285
2018-02-10T11:05:28.345Z,290
2018-02-10T11:06:38.332Z,285
2018-02-10T11:07:48.314Z,280
2018-02-10T11:08:58.299Z,285
2018-02-10T11:10:08.326Z,300
2018-02-10T11:11:17.774Z,305
2018-02-10T11:12:27.225Z,305
2018-02-10T11:13:36.952Z,310
2018-02-10T11:14:46.700Z,315
2018-02-10T11:15:56.467Z,320
2018-02-10T11:17:06.457Z,305
2018-02-10T11:18:16.438Z,300
2018-02-10T11:19:26.422Z,295
2018-02-10T11:20:35.870Z,290
2018-02-10T11:21:45.855Z,295
2018-02-10T11:22:55.574Z,300
2018-02-10T11:24:05.552Z,295
2018-02-10T11:25:15.287Z,305
2018-02-10T11:26:25.265Z,305
2018-02-10T11:27:35.242Z,320
2018-02-10T11:28:45.228Z,315
2018-02-10T11:29:54.956Z,335
2018-02-10T11:31:04.939Z,345
2018-02-10T11:32:14.655Z,365
2018-02-10T11:33:24.471Z,380
2018-02-10T11:34:34.451Z,405
2018-02-10T11:35:44.173Z,405
2018-02-10T11:36:53.624Z,430
2018-02-10T11:38:03.605Z,430
2018-02-10T11:39:13.321Z,430
2018-02-10T11:40:22.776Z,465
2018-02-10T11:41:32.496Z,480
2018-02-10T11:42:42.225Z,415
2018-02-10T11:43:51.941Z,400
2018-02-10T11:45:01.396Z,370
2018-02-10T11:46:10.849Z,360
2018-02-10T11:47:20.574Z,350
2018-02-10T11:48:30.294Z,335
2018-02-10T11:49:40.278Z,345
2018-02-10T11:50:50.096Z,345
2018-02-10T11:51:59.815Z,350
2018-02-10T11:53:09.794Z,350
2018-02-10T11:54:19.243Z,370
2018-02-10T11:55:28.694Z,370
2018-02-10T11:56:38.674Z,385
2018-02-10T11:57:48.661Z,390
2018-02-10T11:58:58.375Z,400
2018-02-10T12:00:08.355Z,410
2018-02-10T12:01:18.148Z,425
2018-02-10T12:02:27.873Z,430
2018-02-10T12:03:37.861Z,425
2018-02-10T12:04:47.316Z,410
2018-02-10T12:05:57.035Z,395
2018-02-10T12:07:07.007Z,395
2018-02-10T12:08:16.505Z,390
2018-02-10T12:09:26.219Z,380
2018-02-10T12:10:35.940Z,370
2018-02-10T12:11:45.920Z,365
2018-02-10T12:12:55.905Z,360
2018-02-10T12:14:05.894Z,375
2018-02-10T12:15:15.348Z,395
2018-02-10T12:16:25.330Z,440
2018-02-10T12:17:35.311Z,445
2018-02-10T12:18:45.293Z,490
2018-02-10T12:19:55.012Z,365
2018-02-10T12:21:05.000Z,375
2018-02-10T12:22:14.456Z,355
2018-02-10T12:23:24.436Z,370
2018-02-10T12:24:33.358Z,330
2018-02-10T12:25:43.389Z,315
2018-02-10T12:26:53.369Z,315
2018-02-10T12:28:03.085Z,310
2018-02-10T12:29:12.807Z,310
2018-02-10T12:30:22.790Z,310
2018-02-10T12:31:32.507Z,310
2018-02-10T12:32:42.490Z,310
2018-02-10T12:33:52.212Z,305
2018-02-10T12:35:02.192Z,310
2018-02-10T12:36:11.647Z,315
2018-02-10T12:37:21.365Z,320
2018-02-10T12:38:31.083Z,300
2018-02-10T12:39:40.809Z,290
2018-02-10T12:40:50.532Z,310
2018-02-10T12:42:00.517Z,295
2018-02-10T12:43:10.228Z,290
2018-02-10T12:44:19.949Z,265
2018-02-10T12:45:29.671Z,240
2018-02-10T12:46:39.124Z,235
2018-02-10T12:47:48.842Z,250
2018-02-10T12:48:58.829Z,225
2018-02-10T12:50:08.822Z,215
2018-02-10T12:51:18.801Z,215
2018-02-10T12:52:28.788Z,220
2018-02-10T12:53:38.242Z,225
2018-02-10T12:54:47.959Z,235
2018-02-10T12:55:57.941Z,240
2018-02-10T12:57:07.935Z,255
2018-02-10T12:58:17.656Z,260
2018-02-10T12:59:27.369Z,260
2018-02-10T13:00:37.362Z,270
2018-02-10T13:01:47.078Z,290
2018-02-10T13:02:56.797Z,330
2018-02-10T13:04:06.516Z,365
2018-02-10T13:05:16.501Z,400
2018-02-10T13:06:26.264Z,400
2018-02-10T13:07:35.978Z,450
2018-02-10T13:08:45.499Z,415
2018-02-10T13:09:54.392Z,350
2018-02-10T13:11:04.109Z,310
2018-02-10T13:12:13.825Z,270
2018-02-10T13:13:23.804Z,240
2018-02-10T13:14:33.520Z,220
2018-02-10T13:15:43.503Z,215
2018-02-10T13:16:52.962Z,210
2018-02-10T13:18:02.729Z,195
2018-02-10T13:19:12.448Z,185
2018-02-10T13:20:22.435Z,185
2018-02-10T13:21:31.888Z,170
2018-02-10T13:22:41.870Z,150
2018-02-10T13:23:51.589Z,130
2018-02-10T13:25:01.312Z,115
2018-02-10T13:26:11.035Z,110
2018-02-10T13:27:21.083Z,100
2018-02-10T13:28:30.862Z,100
2018-02-10T13:29:40.903Z,105
2018-02-10T13:30:50.895Z,110
2018-02-10T13:32:00.611Z,115
2018-02-10T13:33:10.596Z,125
2018-02-10T13:34:20.050Z,125
2018-02-10T13:35:30.097Z,120
2018-02-10T13:36:40.085Z,120
2018-02-10T13:37:49.841Z,115
2018-02-10T13:38:59.824Z,120
2018-02-10T13:40:09.543Z,120
2018-02-10T13:41:19.264Z,120
2018-02-10T13:42:28.717Z,115
2018-02-10T13:43:38.437Z,115
2018-02-10T13:44:47.936Z,115
2018-02-10T13:45:57.943Z,115
2018-02-10T13:47:07.980Z,105
2018-02-10T13:48:17.721Z,100
2018-02-10T13:49:27.701Z,105
2018-02-10T13:50:37.416Z,105
2018-02-10T13:51:47.456Z,105
2018-02-10T13:52:57.177Z,105
2018-02-10T13:54:06.929Z,100
2018-02-10T13:55:16.652Z,100
2018-02-10T13:56:26.367Z,95
2018-02-10T13:57:36.087Z,95
2018-02-10T13:58:46.168Z,95
2018-02-10T13:59:55.616Z,95
2018-02-10T14:01:05.340Z,95
2018-02-10T14:02:15.059Z,100
2018-02-10T14:03:25.097Z,95
2018-02-10T14:04:34.598Z,95
2018-02-10T14:05:44.055Z,90
2018-02-10T14:06:53.776Z,90
2018-02-10T14:08:03.489Z,90
2018-02-10T14:09:13.207Z,90
2018-02-10T14:10:22.980Z,90
2018-02-10T14:11:32.693Z,90
2018-02-10T14:12:42.189Z,90
2018-02-10T14:13:51.941Z,90
2018-02-10T14:15:01.945Z,90
2018-02-10T14:16:11.599Z,100
2018-02-10T14:17:21.582Z,105
2018-02-10T14:18:31.365Z,105
2018-02-10T14:19:41.369Z,100
2018-02-10T14:20:51.349Z,95
2018-02-10T14:22:01.060Z,95
2018-02-10T14:23:10.774Z,95
2018-02-10T14:24:20.495Z,95
2018-02-10T14:25:29.681Z,100
2018-02-10T14:26:39.667Z,105
2018-02-10T14:27:49.656Z,105
2018-02-10T14:28:59.641Z,105
2018-02-10T14:30:09.370Z,95
2018-02-10T14:31:19.345Z,95
2018-02-10T14:32:29.336Z,85
2018-02-10T14:33:39.059Z,85
2018-02-10T14:34:49.036Z,90
2018-02-10T14:35:58.750Z,90
2018-02-10T14:37:08.730Z,95
2018-02-10T14:38:17.917Z,90
2018-02-10T14:39:27.681Z,80
2018-02-10T14:40:37.177Z,75
2018-02-10T14:41:46.894Z,65
2018-02-10T14:42:56.608Z,60
2018-02-10T14:44:06.318Z,60
2018-02-10T14:45:16.134Z,60
2018-02-10T14:46:25.847Z,60
2018-02-10T14:47:35.613Z,55
2018-02-10T14:48:45.593Z,55
2018-02-10T14:49:55.594Z,50
2018-02-10T14:51:05.307Z,50
2018-02-10T14:52:15.284Z,45
2018-02-10T14:53:24.998Z,40
2018-02-10T14:54:34.515Z,40
2018-02-10T14:55:44.239Z,40
2018-02-10T14:56:54.225Z,40
2018-02-10T14:58:04.213Z,40
2018-02-10T14:59:13.931Z,40
2018-02-10T15:00:23.915Z,40
2018-02-10T15:01:33.098Z,40
2018-02-10T15:02:42.332Z,40
2018-02-10T15:03:51.783Z,35
2018-02-10T15:05:01.504Z,40
2018-02-10T15:06:10.953Z,40
2018-02-10T15:07:20.927Z,35
2018-02-10T15:08:30.640Z,35
2018-02-10T15:09:40.624Z,30
2018-02-10T15:10:50.333Z,30
2018-02-10T15:12:00.316Z,30
2018-02-10T15:13:10.308Z,30
2018-02-10T15:14:20.293Z,25
2018-02-10T15:15:30.275Z,25
2018-02-10T15:16:40.255Z,25
2018-02-10T15:17:49.972Z,20
2018-02-10T15:18:59.418Z,20
2018-02-10T15:20:09.443Z,20
2018-02-10T15:21:19.425Z,20
2018-02-10T15:22:29.142Z,20
2018-02-10T15:23:38.590Z,20
2018-02-10T15:24:48.574Z,15
2018-02-10T15:25:58.080Z,15
2018-02-10T15:27:07.794Z,20
2018-02-10T15:28:17.245Z,20
2018-02-10T15:29:26.704Z,20
2018-02-10T15:30:36.688Z,15
2018-02-10T15:31:46.403Z,15
2018-02-10T15:32:56.378Z,15
2018-02-10T15:34:06.368Z,15
2018-02-10T15:35:16.354Z,10
2018-02-10T15:36:26.069Z,10
2018-02-10T15:37:35.840Z,10
2018-02-10T15:38:45.292Z,10
2018-02-10T15:39:54.478Z,5
2018-02-10T15:41:04.199Z,5
2018-02-10T15:42:13.910Z,5
2018-02-10T15:43:23.624Z,5
2018-02-10T15:44:33.337Z,5
2018-02-10T15:45:43.054Z,5
2018-02-10T15:46:52.768Z,5
2018-02-10T15:48:01.950Z,5
2018-02-10T15:49:11.667Z,5
2018-02-10T15:50:21.644Z,5
2018-02-10T15:51:31.363Z,0
2018-02-10T15:52:41.078Z,0
2018-02-10T15:53:51.058Z,0
2018-02-10T15:55:00.777Z,0
2018-02-10T15:56:10.491Z,0
2018-02-10T15:57:20.474Z,0
2018-02-10T15:58:30.189Z,0
2018-02-10T15:59:39.905Z,0
2018-02-10T16:00:49.619Z,0
2018-02-10T16:01:59.652Z,0
2018-02-10T16:03:08.834Z,0
2018-02-10T16:04:18.817Z,0
2018-02-10T16:05:28.270Z,0
2018-02-10T16:06:38.035Z,0
2018-02-10T16:07:47.485Z,0
2018-02-10T16:08:57.462Z,0
2018-02-10T16:10:06.915Z,0
2018-02-10T16:11:16.636Z,0
2018-02-10T16:12:26.187Z,0
2018-02-10T16:13:35.634Z,0
2018-02-10T16:14:45.349Z,0
2018-02-10T16:15:55.327Z,0
2018-02-10T16:17:05.316Z,0
2018-02-10T16:18:15.028Z,0
2018-02-10T16:19:25.008Z,0
2018-02-10T16:20:34.461Z,0
2018-02-10T16:21:44.521Z,0
2018-02-10T16:22:54.504Z,0
2018-02-10T16:24:04.276Z,0
2018-02-10T16:25:13.993Z,0
2018-02-10T16:26:23.974Z,0
2018-02-10T16:27:33.191Z,0
2018-02-10T16:28:42.905Z,0
2018-02-10T16:29:52.659Z,0
2018-02-10T16:31:02.370Z,0
2018-02-10T16:32:11.551Z,0
2018-02-10T16:33:21.266Z,0
2018-02-10T16:34:30.976Z,0
2018-02-10T16:35:40.962Z,0
2018-02-10T16:36:50.941Z,0
2018-02-10T16:38:00.924Z,0
2018-02-10T16:39:10.639Z,0
2018-02-10T16:40:20.095Z,0
2018-02-10T16:41:30.124Z,0
2018-02-10T16:42:40.107Z,0
2018-02-10T16:43:49.827Z,0
2018-02-10T16:44:59.538Z,0